To NAV CANADA Home Page Login to a new session Search on AWWS site Disclaimer Vers la page française équivalente Tips FAQ What's new on the site To the Forecasts and Observations / NOTAM section To "File a Flight Plan" website Publications and other links Update of the User's profile FIC Telephone Numbers My Weather Data Folder Route Weather Data Regional Weather Data Local Weather Data To the Forecasts and Observations / NOTAM section
Request Generated 03/19/2019 at 23:05:41 UTC . Weather information available at that time is displayed.

METAR/TAF

KEY LAKE/SK    (show WxCam)

METAR CYKJ 192300Z AUTO 33006KT 9SM CLR 10/M06 A2996 RMK SLP169=
METAR CYKJ 192200Z AUTO 33007KT 9SM CLR 10/M05 A2996 RMK SLP167=
METAR CYKJ 192100Z AUTO 32008KT 9SM CLR 10/M04 A2994 RMK SLP161=

TAF CYKJ 191838Z 1919/1924 31008KT P6SM SCT250
BECMG 1922/1924 22005KT
RMK FCST BASED ON AUTO OBS. NXT FCST WILL BE ISSUED AT 200945Z=
Your time UTC time
Weather data provided by Environment Canada and NAV CANADA